sensor_id;sensor_type;location;lat;lon;timestamp;P1;durP1;ratioP1;P2;durP2;ratioP2
74102;SDS011;62853;46.166;3.640;2023-03-12T00:01:25;4.70;;;2.30;;
74102;SDS011;62853;46.166;3.640;2023-03-12T00:03:59;3.58;;;2.35;;
74102;SDS011;62853;46.166;3.640;2023-03-12T00:06:43;3.10;;;2.35;;
74102;SDS011;62853;46.166;3.640;2023-03-12T00:09:19;3.47;;;2.70;;
74102;SDS011;62853;46.166;3.640;2023-03-12T00:11:56;4.00;;;2.45;;
74102;SDS011;62853;46.166;3.640;2023-03-12T00:14:26;3.45;;;2.42;;
74102;SDS011;62853;46.166;3.640;2023-03-12T00:16:52;4.28;;;2.47;;
74102;SDS011;62853;46.166;3.640;2023-03-12T00:19:26;3.95;;;2.67;;
74102;SDS011;62853;46.166;3.640;2023-03-12T00:21:59;5.32;;;2.83;;
74102;SDS011;62853;46.166;3.640;2023-03-12T00:24:27;4.57;;;2.95;;
74102;SDS011;62853;46.166;3.640;2023-03-12T00:27:16;5.43;;;3.30;;
74102;SDS011;62853;46.166;3.640;2023-03-12T00:29:44;4.45;;;2.63;;
74102;SDS011;62853;46.166;3.640;2023-03-12T00:32:10;4.82;;;2.85;;
74102;SDS011;62853;46.166;3.640;2023-03-12T00:34:35;4.15;;;2.75;;
74102;SDS011;62853;46.166;3.640;2023-03-12T00:37:01;4.57;;;2.67;;
74102;SDS011;62853;46.166;3.640;2023-03-12T00:39:26;2.65;;;2.28;;
74102;SDS011;62853;46.166;3.640;2023-03-12T00:41:59;3.40;;;2.60;;
74102;SDS011;62853;46.166;3.640;2023-03-12T00:44:31;3.70;;;2.70;;
74102;SDS011;62853;46.166;3.640;2023-03-12T00:47:04;3.42;;;2.97;;
74102;SDS011;62853;46.166;3.640;2023-03-12T00:49:47;5.05;;;2.65;;
74102;SDS011;62853;46.166;3.640;2023-03-12T00:52:18;4.18;;;2.65;;
74102;SDS011;62853;46.166;3.640;2023-03-12T00:54:49;4.10;;;2.65;;
74102;SDS011;62853;46.166;3.640;2023-03-12T00:57:27;3.67;;;2.60;;
74102;SDS011;62853;46.166;3.640;2023-03-12T00:59:57;3.10;;;2.38;;
74102;SDS011;62853;46.166;3.640;2023-03-12T01:05:34;3.65;;;2.53;;
74102;SDS011;62853;46.166;3.640;2023-03-12T01:08:08;2.72;;;2.20;;
74102;SDS011;62853;46.166;3.640;2023-03-12T01:10:34;3.65;;;2.50;;
74102;SDS011;62853;46.166;3.640;2023-03-12T01:13:03;4.63;;;2.63;;
74102;SDS011;62853;46.166;3.640;2023-03-12T01:15:28;3.30;;;2.60;;
74102;SDS011;62853;46.166;3.640;2023-03-12T01:18:06;3.22;;;2.38;;
74102;SDS011;62853;46.166;3.640;2023-03-12T01:21:03;3.67;;;2.40;;
74102;SDS011;62853;46.166;3.640;2023-03-12T01:23:42;3.25;;;2.55;;
74102;SDS011;62853;46.166;3.640;2023-03-12T01:29:21;4.30;;;2.80;;
74102;SDS011;62853;46.166;3.640;2023-03-12T01:32:15;6.25;;;2.92;;
74102;SDS011;62853;46.166;3.640;2023-03-12T01:34:47;3.60;;;2.67;;
74102;SDS011;62853;46.166;3.640;2023-03-12T01:37:22;3.55;;;2.67;;
74102;SDS011;62853;46.166;3.640;2023-03-12T01:39:55;4.22;;;2.75;;
74102;SDS011;62853;46.166;3.640;2023-03-12T01:42:33;3.70;;;2.70;;
74102;SDS011;62853;46.166;3.640;2023-03-12T01:48:29;5.63;;;3.58;;
74102;SDS011;62853;46.166;3.640;2023-03-12T01:51:27;5.43;;;3.15;;
74102;SDS011;62853;46.166;3.640;2023-03-12T01:57:02;5.03;;;3.58;;
74102;SDS011;62853;46.166;3.640;2023-03-12T02:00:28;6.65;;;3.38;;
74102;SDS011;62853;46.166;3.640;2023-03-12T02:03:38;5.15;;;3.22;;
74102;SDS011;62853;46.166;3.640;2023-03-12T02:07:09;3.55;;;3.17;;
74102;SDS011;62853;46.166;3.640;2023-03-12T02:09:45;5.22;;;2.90;;
74102;SDS011;62853;46.166;3.640;2023-03-12T02:12:20;5.47;;;3.20;;
74102;SDS011;62853;46.166;3.640;2023-03-12T02:14:59;6.00;;;3.40;;
74102;SDS011;62853;46.166;3.640;2023-03-12T02:17:47;4.93;;;3.58;;
74102;SDS011;62853;46.166;3.640;2023-03-12T02:26:30;5.47;;;3.45;;
74102;SDS011;62853;46.166;3.640;2023-03-12T02:28:57;4.38;;;3.33;;
74102;SDS011;62853;46.166;3.640;2023-03-12T02:31:25;5.00;;;3.05;;
74102;SDS011;62853;46.166;3.640;2023-03-12T02:33:56;3.95;;;3.20;;
74102;SDS011;62853;46.166;3.640;2023-03-12T02:36:25;4.90;;;3.38;;
74102;SDS011;62853;46.166;3.640;2023-03-12T02:38:52;6.05;;;3.75;;
74102;SDS011;62853;46.166;3.640;2023-03-12T02:41:20;5.45;;;3.22;;
74102;SDS011;62853;46.166;3.640;2023-03-12T02:43:49;5.18;;;3.40;;
74102;SDS011;62853;46.166;3.640;2023-03-12T02:46:22;5.90;;;3.72;;
74102;SDS011;62853;46.166;3.640;2023-03-12T02:48:47;6.65;;;3.83;;
74102;SDS011;62853;46.166;3.640;2023-03-12T02:51:16;4.38;;;3.17;;
74102;SDS011;62853;46.166;3.640;2023-03-12T02:53:42;4.03;;;3.00;;
74102;SDS011;62853;46.166;3.640;2023-03-12T02:56:07;3.78;;;2.78;;
74102;SDS011;62853;46.166;3.640;2023-03-12T02:58:33;3.80;;;2.75;;
74102;SDS011;62853;46.166;3.640;2023-03-12T03:01:01;4.07;;;3.13;;
74102;SDS011;62853;46.166;3.640;2023-03-12T03:03:32;4.38;;;3.17;;
74102;SDS011;62853;46.166;3.640;2023-03-12T03:06:37;5.30;;;3.00;;
74102;SDS011;62853;46.166;3.640;2023-03-12T03:09:12;4.93;;;3.13;;
74102;SDS011;62853;46.166;3.640;2023-03-12T03:11:46;5.07;;;3.45;;
74102;SDS011;62853;46.166;3.640;2023-03-12T03:14:16;4.50;;;3.65;;
74102;SDS011;62853;46.166;3.640;2023-03-12T03:16:47;4.75;;;3.03;;
74102;SDS011;62853;46.166;3.640;2023-03-12T03:19:18;4.82;;;3.25;;
74102;SDS011;62853;46.166;3.640;2023-03-12T03:21:59;6.25;;;3.55;;
74102;SDS011;62853;46.166;3.640;2023-03-12T03:24:24;4.32;;;3.35;;
74102;SDS011;62853;46.166;3.640;2023-03-12T03:27:00;4.55;;;3.53;;
74102;SDS011;62853;46.166;3.640;2023-03-12T03:29:31;7.20;;;3.92;;
74102;SDS011;62853;46.166;3.640;2023-03-12T03:31:59;5.45;;;3.40;;
74102;SDS011;62853;46.166;3.640;2023-03-12T03:34:38;5.78;;;3.15;;
74102;SDS011;62853;46.166;3.640;2023-03-12T03:40:28;5.07;;;2.70;;
74102;SDS011;62853;46.166;3.640;2023-03-12T03:43:20;4.57;;;3.10;;
74102;SDS011;62853;46.166;3.640;2023-03-12T03:45:55;4.20;;;2.60;;
74102;SDS011;62853;46.166;3.640;2023-03-12T03:48:27;3.47;;;2.35;;
74102;SDS011;62853;46.166;3.640;2023-03-12T03:51:23;4.45;;;2.85;;
74102;SDS011;62853;46.166;3.640;2023-03-12T03:54:17;4.45;;;2.97;;
74102;SDS011;62853;46.166;3.640;2023-03-12T04:09:07;4.63;;;2.72;;
74102;SDS011;62853;46.166;3.640;2023-03-12T04:11:56;4.13;;;2.55;;
74102;SDS011;62853;46.166;3.640;2023-03-12T04:14:28;3.47;;;2.40;;
74102;SDS011;62853;46.166;3.640;2023-03-12T04:27:36;3.88;;;2.58;;
74102;SDS011;62853;46.166;3.640;2023-03-12T04:30:49;4.57;;;2.85;;
74102;SDS011;62853;46.166;3.640;2023-03-12T04:36:58;3.67;;;2.63;;
74102;SDS011;62853;46.166;3.640;2023-03-12T04:54:48;4.47;;;3.00;;
74102;SDS011;62853;46.166;3.640;2023-03-12T04:57:51;4.68;;;2.63;;
74102;SDS011;62853;46.166;3.640;2023-03-12T05:10:26;4.72;;;3.05;;
74102;SDS011;62853;46.166;3.640;2023-03-12T05:20:22;4.68;;;3.22;;
74102;SDS011;62853;46.166;3.640;2023-03-12T05:22:55;4.57;;;2.70;;
74102;SDS011;62853;46.166;3.640;2023-03-12T05:25:44;5.95;;;3.10;;
74102;SDS011;62853;46.166;3.640;2023-03-12T05:28:17;5.07;;;2.70;;
74102;SDS011;62853;46.166;3.640;2023-03-12T05:31:26;4.05;;;2.83;;
74102;SDS011;62853;46.166;3.640;2023-03-12T05:37:02;5.65;;;2.88;;
74102;SDS011;62853;46.166;3.640;2023-03-12T05:46:26;4.63;;;2.90;;
74102;SDS011;62853;46.166;3.640;2023-03-12T05:48:59;3.90;;;2.72;;
74102;SDS011;62853;46.166;3.640;2023-03-12T05:58:47;4.90;;;2.85;;
74102;SDS011;62853;46.166;3.640;2023-03-12T06:01:36;5.82;;;2.90;;
74102;SDS011;62853;46.166;3.640;2023-03-12T06:04:25;6.97;;;3.05;;
74102;SDS011;62853;46.166;3.640;2023-03-12T06:37:19;4.97;;;3.38;;
74102;SDS011;62853;46.166;3.640;2023-03-12T06:47:29;4.90;;;3.00;;
74102;SDS011;62853;46.166;3.640;2023-03-12T06:49:57;5.32;;;3.45;;
74102;SDS011;62853;46.166;3.640;2023-03-12T06:52:38;6.32;;;4.15;;
74102;SDS011;62853;46.166;3.640;2023-03-12T06:55:24;6.35;;;3.65;;
74102;SDS011;62853;46.166;3.640;2023-03-12T06:58:00;7.15;;;4.07;;
74102;SDS011;62853;46.166;3.640;2023-03-12T07:00:31;6.00;;;3.38;;
74102;SDS011;62853;46.166;3.640;2023-03-12T07:03:17;5.00;;;3.13;;
74102;SDS011;62853;46.166;3.640;2023-03-12T07:06:03;4.07;;;2.90;;
74102;SDS011;62853;46.166;3.640;2023-03-12T07:09:04;5.40;;;3.35;;
74102;SDS011;62853;46.166;3.640;2023-03-12T07:12:05;5.18;;;3.60;;
74102;SDS011;62853;46.166;3.640;2023-03-12T07:15:02;5.50;;;3.42;;
74102;SDS011;62853;46.166;3.640;2023-03-12T07:17:57;7.15;;;4.10;;
74102;SDS011;62853;46.166;3.640;2023-03-12T07:24:30;6.53;;;3.92;;
74102;SDS011;62853;46.166;3.640;2023-03-12T07:28:08;7.07;;;4.05;;
74102;SDS011;62853;46.166;3.640;2023-03-12T07:30:58;4.38;;;3.28;;
74102;SDS011;62853;46.166;3.640;2023-03-12T07:33:40;5.30;;;3.35;;
74102;SDS011;62853;46.166;3.640;2023-03-12T07:36:26;4.60;;;3.13;;
74102;SDS011;62853;46.166;3.640;2023-03-12T07:38:56;5.00;;;3.35;;
74102;SDS011;62853;46.166;3.640;2023-03-12T07:44:31;5.43;;;3.65;;
74102;SDS011;62853;46.166;3.640;2023-03-12T07:46:57;4.38;;;3.00;;
74102;SDS011;62853;46.166;3.640;2023-03-12T07:49:23;3.22;;;2.13;;
74102;SDS011;62853;46.166;3.640;2023-03-12T07:51:49;3.95;;;2.88;;
74102;SDS011;62853;46.166;3.640;2023-03-12T07:54:30;3.20;;;2.17;;
74102;SDS011;62853;46.166;3.640;2023-03-12T07:57:03;3.55;;;2.50;;
74102;SDS011;62853;46.166;3.640;2023-03-12T07:59:32;3.42;;;2.63;;
74102;SDS011;62853;46.166;3.640;2023-03-12T08:02:10;4.57;;;2.92;;
74102;SDS011;62853;46.166;3.640;2023-03-12T08:04:47;4.47;;;3.15;;
74102;SDS011;62853;46.166;3.640;2023-03-12T08:07:24;4.38;;;3.22;;
74102;SDS011;62853;46.166;3.640;2023-03-12T08:10:01;4.25;;;2.63;;
74102;SDS011;62853;46.166;3.640;2023-03-12T08:13:08;4.28;;;2.92;;
74102;SDS011;62853;46.166;3.640;2023-03-12T08:15:50;4.10;;;2.75;;
74102;SDS011;62853;46.166;3.640;2023-03-12T08:18:31;4.75;;;2.83;;
74102;SDS011;62853;46.166;3.640;2023-03-12T08:20:59;5.05;;;3.72;;
74102;SDS011;62853;46.166;3.640;2023-03-12T08:23:35;3.55;;;3.22;;
74102;SDS011;62853;46.166;3.640;2023-03-12T08:26:12;5.88;;;3.72;;
74102;SDS011;62853;46.166;3.640;2023-03-12T08:28:43;6.05;;;4.07;;
74102;SDS011;62853;46.166;3.640;2023-03-12T08:31:09;5.93;;;4.10;;
74102;SDS011;62853;46.166;3.640;2023-03-12T08:33:42;6.82;;;4.90;;
74102;SDS011;62853;46.166;3.640;2023-03-12T08:36:30;5.60;;;3.67;;
74102;SDS011;62853;46.166;3.640;2023-03-12T08:39:08;5.13;;;3.55;;
74102;SDS011;62853;46.166;3.640;2023-03-12T08:42:05;6.00;;;3.90;;
74102;SDS011;62853;46.166;3.640;2023-03-12T08:50:20;5.60;;;4.25;;
74102;SDS011;62853;46.166;3.640;2023-03-12T08:52:52;6.55;;;5.20;;
74102;SDS011;62853;46.166;3.640;2023-03-12T08:55:23;8.10;;;5.53;;
74102;SDS011;62853;46.166;3.640;2023-03-12T08:58:12;5.95;;;4.53;;
74102;SDS011;62853;46.166;3.640;2023-03-12T09:01:08;8.13;;;5.03;;
74102;SDS011;62853;46.166;3.640;2023-03-12T09:07:35;5.70;;;4.13;;
74102;SDS011;62853;46.166;3.640;2023-03-12T09:10:49;12.60;;;6.85;;
74102;SDS011;62853;46.166;3.640;2023-03-12T09:13:38;11.38;;;6.45;;
74102;SDS011;62853;46.166;3.640;2023-03-12T09:16:35;16.60;;;8.43;;
74102;SDS011;62853;46.166;3.640;2023-03-12T09:19:12;12.45;;;7.53;;
74102;SDS011;62853;46.166;3.640;2023-03-12T09:21:49;16.02;;;9.52;;
74102;SDS011;62853;46.166;3.640;2023-03-12T09:24:28;16.40;;;9.10;;
74102;SDS011;62853;46.166;3.640;2023-03-12T09:26:56;12.05;;;8.70;;
74102;SDS011;62853;46.166;3.640;2023-03-12T09:29:30;12.13;;;10.90;;
74102;SDS011;62853;46.166;3.640;2023-03-12T09:34:51;11.03;;;6.97;;
74102;SDS011;62853;46.166;3.640;2023-03-12T09:37:24;12.77;;;7.97;;
74102;SDS011;62853;46.166;3.640;2023-03-12T09:43:04;11.20;;;8.00;;
74102;SDS011;62853;46.166;3.640;2023-03-12T09:45:42;11.60;;;8.63;;
74102;SDS011;62853;46.166;3.640;2023-03-12T09:48:17;12.70;;;8.65;;
74102;SDS011;62853;46.166;3.640;2023-03-12T09:50:49;14.32;;;10.63;;
74102;SDS011;62853;46.166;3.640;2023-03-12T09:53:26;13.82;;;12.43;;
74102;SDS011;62853;46.166;3.640;2023-03-12T09:56:08;16.20;;;11.05;;
74102;SDS011;62853;46.166;3.640;2023-03-12T09:58:41;21.17;;;11.75;;
74102;SDS011;62853;46.166;3.640;2023-03-12T10:04:28;18.15;;;16.45;;
74102;SDS011;62853;46.166;3.640;2023-03-12T10:23:54;22.88;;;13.25;;
74102;SDS011;62853;46.166;3.640;2023-03-12T10:29:26;41.00;;;20.58;;
74102;SDS011;62853;46.166;3.640;2023-03-12T10:32:18;26.05;;;22.40;;
74102;SDS011;62853;46.166;3.640;2023-03-12T10:35:24;29.20;;;23.58;;
74102;SDS011;62853;46.166;3.640;2023-03-12T10:37:58;20.23;;;12.15;;
74102;SDS011;62853;46.166;3.640;2023-03-12T10:40:36;29.30;;;22.63;;
74102;SDS011;62853;46.166;3.640;2023-03-12T10:43:07;23.88;;;21.35;;
74102;SDS011;62853;46.166;3.640;2023-03-12T10:45:46;28.80;;;24.88;;
74102;SDS011;62853;46.166;3.640;2023-03-12T10:48:25;31.90;;;25.85;;
74102;SDS011;62853;46.166;3.640;2023-03-12T10:51:01;23.17;;;12.32;;
74102;SDS011;62853;46.166;3.640;2023-03-12T10:56:39;22.60;;;20.20;;
74102;SDS011;62853;46.166;3.640;2023-03-12T10:59:23;26.05;;;22.45;;
74102;SDS011;62853;46.166;3.640;2023-03-12T11:05:17;23.52;;;20.63;;
74102;SDS011;62853;46.166;3.640;2023-03-12T11:08:12;23.48;;;21.13;;
74102;SDS011;62853;46.166;3.640;2023-03-12T11:11:11;41.90;;;17.83;;
74102;SDS011;62853;46.166;3.640;2023-03-12T11:17:26;20.13;;;12.65;;
74102;SDS011;62853;46.166;3.640;2023-03-12T11:26:34;34.15;;;25.67;;
74102;SDS011;62853;46.166;3.640;2023-03-12T11:29:47;34.80;;;17.70;;
74102;SDS011;62853;46.166;3.640;2023-03-12T11:35:09;28.70;;;22.77;;
74102;SDS011;62853;46.166;3.640;2023-03-12T11:56:33;28.27;;;21.65;;
74102;SDS011;62853;46.166;3.640;2023-03-12T12:01:56;40.33;;;25.85;;
74102;SDS011;62853;46.166;3.640;2023-03-12T12:04:37;39.10;;;27.45;;
74102;SDS011;62853;46.166;3.640;2023-03-12T12:07:29;25.48;;;20.65;;
74102;SDS011;62853;46.166;3.640;2023-03-12T12:29:30;25.67;;;17.15;;
74102;SDS011;62853;46.166;3.640;2023-03-12T12:32:01;24.10;;;12.02;;
74102;SDS011;62853;46.166;3.640;2023-03-12T12:34:52;29.20;;;18.52;;
74102;SDS011;62853;46.166;3.640;2023-03-12T12:37:46;30.38;;;18.60;;
74102;SDS011;62853;46.166;3.640;2023-03-12T12:45:17;31.33;;;17.88;;
74102;SDS011;62853;46.166;3.640;2023-03-12T12:47:49;20.88;;;14.93;;
74102;SDS011;62853;46.166;3.640;2023-03-12T12:50:24;18.52;;;12.95;;
74102;SDS011;62853;46.166;3.640;2023-03-12T12:53:27;30.30;;;16.48;;
74102;SDS011;62853;46.166;3.640;2023-03-12T13:01:12;25.73;;;8.32;;
74102;SDS011;62853;46.166;3.640;2023-03-12T13:03:42;26.85;;;12.02;;
74102;SDS011;62853;46.166;3.640;2023-03-12T13:06:08;18.83;;;9.98;;
74102;SDS011;62853;46.166;3.640;2023-03-12T13:18:58;14.60;;;6.80;;
74102;SDS011;62853;46.166;3.640;2023-03-12T13:24:27;15.93;;;6.32;;
74102;SDS011;62853;46.166;3.640;2023-03-12T13:27:08;19.75;;;7.07;;
74102;SDS011;62853;46.166;3.640;2023-03-12T13:29:39;18.40;;;7.38;;
74102;SDS011;62853;46.166;3.640;2023-03-12T13:32:35;16.60;;;6.63;;
74102;SDS011;62853;46.166;3.640;2023-03-12T13:43:08;16.30;;;4.28;;
74102;SDS011;62853;46.166;3.640;2023-03-12T13:45:57;12.70;;;5.35;;
74102;SDS011;62853;46.166;3.640;2023-03-12T13:48:38;13.70;;;4.78;;
74102;SDS011;62853;46.166;3.640;2023-03-12T13:51:13;19.73;;;6.15;;
74102;SDS011;62853;46.166;3.640;2023-03-12T13:53:46;14.45;;;5.47;;
74102;SDS011;62853;46.166;3.640;2023-03-12T13:56:16;20.33;;;5.93;;
74102;SDS011;62853;46.166;3.640;2023-03-12T13:58:57;20.45;;;6.95;;
74102;SDS011;62853;46.166;3.640;2023-03-12T14:01:29;12.50;;;5.28;;
74102;SDS011;62853;46.166;3.640;2023-03-12T14:04:00;23.77;;;6.10;;
74102;SDS011;62853;46.166;3.640;2023-03-12T14:06:29;14.10;;;5.00;;
74102;SDS011;62853;46.166;3.640;2023-03-12T14:12:04;23.02;;;6.78;;
74102;SDS011;62853;46.166;3.640;2023-03-12T14:17:48;22.75;;;6.07;;
74102;SDS011;62853;46.166;3.640;2023-03-12T14:20:21;12.85;;;4.53;;
74102;SDS011;62853;46.166;3.640;2023-03-12T14:23:20;17.83;;;6.22;;
74102;SDS011;62853;46.166;3.640;2023-03-12T14:25:41;22.23;;;6.53;;
74102;SDS011;62853;46.166;3.640;2023-03-12T14:28:16;14.48;;;5.25;;
74102;SDS011;62853;46.166;3.640;2023-03-12T14:31:01;21.58;;;6.20;;
74102;SDS011;62853;46.166;3.640;2023-03-12T14:36:26;17.52;;;5.95;;
74102;SDS011;62853;46.166;3.640;2023-03-12T14:39:07;25.13;;;7.45;;
74102;SDS011;62853;46.166;3.640;2023-03-12T14:41:48;14.75;;;5.25;;
74102;SDS011;62853;46.166;3.640;2023-03-12T14:44:22;15.40;;;5.30;;
74102;SDS011;62853;46.166;3.640;2023-03-12T14:46:59;32.67;;;4.57;;
74102;SDS011;62853;46.166;3.640;2023-03-12T14:49:26;21.48;;;6.55;;
74102;SDS011;62853;46.166;3.640;2023-03-12T14:51:53;17.40;;;6.03;;
74102;SDS011;62853;46.166;3.640;2023-03-12T14:54:19;16.67;;;5.47;;
74102;SDS011;62853;46.166;3.640;2023-03-12T14:56:48;19.08;;;5.90;;
74102;SDS011;62853;46.166;3.640;2023-03-12T15:01:55;18.85;;;6.30;;
74102;SDS011;62853;46.166;3.640;2023-03-12T15:04:24;20.63;;;6.05;;
74102;SDS011;62853;46.166;3.640;2023-03-12T15:06:51;19.48;;;5.63;;
74102;SDS011;62853;46.166;3.640;2023-03-12T15:09:26;15.52;;;4.95;;
74102;SDS011;62853;46.166;3.640;2023-03-12T15:25:20;16.92;;;5.30;;
74102;SDS011;62853;46.166;3.640;2023-03-12T15:37:18;15.45;;;5.30;;
74102;SDS011;62853;46.166;3.640;2023-03-12T15:47:10;17.60;;;5.13;;
74102;SDS011;62853;46.166;3.640;2023-03-12T15:56:35;12.20;;;4.15;;
74102;SDS011;62853;46.166;3.640;2023-03-12T15:59:26;21.23;;;3.42;;
74102;SDS011;62853;46.166;3.640;2023-03-12T16:01:55;14.35;;;4.78;;
74102;SDS011;62853;46.166;3.640;2023-03-12T16:04:21;10.18;;;3.85;;
74102;SDS011;62853;46.166;3.640;2023-03-12T16:06:49;16.92;;;4.95;;
74102;SDS011;62853;46.166;3.640;2023-03-12T16:09:21;21.52;;;6.20;;
74102;SDS011;62853;46.166;3.640;2023-03-12T16:11:50;16.80;;;5.18;;
74102;SDS011;62853;46.166;3.640;2023-03-12T16:14:27;20.05;;;5.85;;
74102;SDS011;62853;46.166;3.640;2023-03-12T16:16:57;15.88;;;4.93;;
74102;SDS011;62853;46.166;3.640;2023-03-12T16:19:29;10.20;;;3.35;;
74102;SDS011;62853;46.166;3.640;2023-03-12T16:22:03;23.77;;;5.78;;
74102;SDS011;62853;46.166;3.640;2023-03-12T16:24:28;16.05;;;5.57;;
74102;SDS011;62853;46.166;3.640;2023-03-12T16:29:45;10.63;;;3.88;;
74102;SDS011;62853;46.166;3.640;2023-03-12T16:32:13;9.07;;;3.42;;
74102;SDS011;62853;46.166;3.640;2023-03-12T16:34:46;14.13;;;4.22;;
74102;SDS011;62853;46.166;3.640;2023-03-12T16:37:15;19.77;;;5.18;;
74102;SDS011;62853;46.166;3.640;2023-03-12T16:39:43;17.35;;;4.80;;
74102;SDS011;62853;46.166;3.640;2023-03-12T16:47:43;11.98;;;4.10;;
74102;SDS011;62853;46.166;3.640;2023-03-12T16:50:21;10.93;;;3.88;;
74102;SDS011;62853;46.166;3.640;2023-03-12T16:52:47;10.85;;;4.35;;
74102;SDS011;62853;46.166;3.640;2023-03-12T16:55:20;19.60;;;5.60;;
74102;SDS011;62853;46.166;3.640;2023-03-12T16:58:09;15.82;;;5.38;;
74102;SDS011;62853;46.166;3.640;2023-03-12T17:00:37;14.82;;;4.75;;
74102;SDS011;62853;46.166;3.640;2023-03-12T17:03:03;11.70;;;4.25;;
74102;SDS011;62853;46.166;3.640;2023-03-12T17:05:30;10.93;;;3.92;;
74102;SDS011;62853;46.166;3.640;2023-03-12T17:07:56;10.20;;;3.70;;
74102;SDS011;62853;46.166;3.640;2023-03-12T17:10:24;8.98;;;3.45;;
74102;SDS011;62853;46.166;3.640;2023-03-12T17:12:53;7.93;;;3.38;;
74102;SDS011;62853;46.166;3.640;2023-03-12T17:15:23;14.82;;;4.38;;
74102;SDS011;62853;46.166;3.640;2023-03-12T17:17:57;11.82;;;3.63;;
74102;SDS011;62853;46.166;3.640;2023-03-12T17:20:27;13.98;;;4.47;;
74102;SDS011;62853;46.166;3.640;2023-03-12T17:23:02;8.73;;;3.85;;
74102;SDS011;62853;46.166;3.640;2023-03-12T17:25:32;17.77;;;4.22;;
74102;SDS011;62853;46.166;3.640;2023-03-12T17:28:01;14.02;;;4.70;;
74102;SDS011;62853;46.166;3.640;2023-03-12T17:30:28;14.02;;;4.78;;
74102;SDS011;62853;46.166;3.640;2023-03-12T17:35:44;13.93;;;4.78;;
74102;SDS011;62853;46.166;3.640;2023-03-12T17:38:10;11.70;;;3.47;;
74102;SDS011;62853;46.166;3.640;2023-03-12T17:40:40;10.77;;;4.30;;
74102;SDS011;62853;46.166;3.640;2023-03-12T17:43:07;14.43;;;4.57;;
74102;SDS011;62853;46.166;3.640;2023-03-12T17:45:33;13.68;;;4.22;;
74102;SDS011;62853;46.166;3.640;2023-03-12T17:48:00;11.18;;;3.47;;
74102;SDS011;62853;46.166;3.640;2023-03-12T17:50:26;10.63;;;3.65;;
74102;SDS011;62853;46.166;3.640;2023-03-12T17:52:53;13.52;;;4.25;;
74102;SDS011;62853;46.166;3.640;2023-03-12T17:55:19;13.73;;;4.75;;
74102;SDS011;62853;46.166;3.640;2023-03-12T17:57:44;14.32;;;4.57;;
74102;SDS011;62853;46.166;3.640;2023-03-12T18:00:10;12.10;;;4.30;;
74102;SDS011;62853;46.166;3.640;2023-03-12T18:02:37;17.25;;;5.35;;
74102;SDS011;62853;46.166;3.640;2023-03-12T18:05:04;10.90;;;3.88;;
74102;SDS011;62853;46.166;3.640;2023-03-12T18:07:30;9.40;;;3.45;;
74102;SDS011;62853;46.166;3.640;2023-03-12T18:09:56;11.57;;;4.43;;
74102;SDS011;62853;46.166;3.640;2023-03-12T18:12:23;15.68;;;4.35;;
74102;SDS011;62853;46.166;3.640;2023-03-12T18:14:49;14.98;;;4.00;;
74102;SDS011;62853;46.166;3.640;2023-03-12T18:17:14;17.38;;;4.30;;
74102;SDS011;62853;46.166;3.640;2023-03-12T18:19:43;12.98;;;4.22;;
74102;SDS011;62853;46.166;3.640;2023-03-12T18:24:44;14.48;;;4.78;;
74102;SDS011;62853;46.166;3.640;2023-03-12T18:27:10;13.57;;;2.13;;
74102;SDS011;62853;46.166;3.640;2023-03-12T18:29:36;15.35;;;4.80;;
74102;SDS011;62853;46.166;3.640;2023-03-12T18:32:05;12.10;;;2.08;;
74102;SDS011;62853;46.166;3.640;2023-03-12T18:34:31;17.65;;;4.82;;
74102;SDS011;62853;46.166;3.640;2023-03-12T18:37:06;16.85;;;5.40;;
74102;SDS011;62853;46.166;3.640;2023-03-12T18:39:36;10.63;;;4.13;;
74102;SDS011;62853;46.166;3.640;2023-03-12T18:42:01;10.88;;;3.83;;
74102;SDS011;62853;46.166;3.640;2023-03-12T18:44:27;11.13;;;3.10;;
74102;SDS011;62853;46.166;3.640;2023-03-12T18:46:52;12.32;;;4.47;;
74102;SDS011;62853;46.166;3.640;2023-03-12T18:49:20;9.88;;;3.25;;
74102;SDS011;62853;46.166;3.640;2023-03-12T18:51:46;7.45;;;2.92;;
74102;SDS011;62853;46.166;3.640;2023-03-12T18:54:21;4.78;;;1.20;;
74102;SDS011;62853;46.166;3.640;2023-03-12T18:56:52;8.80;;;2.88;;
74102;SDS011;62853;46.166;3.640;2023-03-12T18:59:23;7.53;;;2.70;;
74102;SDS011;62853;46.166;3.640;2023-03-12T19:01:50;7.68;;;3.20;;
74102;SDS011;62853;46.166;3.640;2023-03-12T19:04:19;8.15;;;2.85;;
74102;SDS011;62853;46.166;3.640;2023-03-12T19:06:46;9.60;;;3.00;;
74102;SDS011;62853;46.166;3.640;2023-03-12T19:09:11;12.43;;;3.75;;
74102;SDS011;62853;46.166;3.640;2023-03-12T19:11:37;8.88;;;3.35;;
74102;SDS011;62853;46.166;3.640;2023-03-12T19:14:03;7.72;;;2.85;;
74102;SDS011;62853;46.166;3.640;2023-03-12T19:16:34;12.77;;;3.92;;
74102;SDS011;62853;46.166;3.640;2023-03-12T19:18:59;10.13;;;3.63;;
74102;SDS011;62853;46.166;3.640;2023-03-12T19:21:25;7.32;;;2.90;;
74102;SDS011;62853;46.166;3.640;2023-03-12T19:23:51;8.13;;;3.08;;
74102;SDS011;62853;46.166;3.640;2023-03-12T19:26:17;8.93;;;2.78;;
74102;SDS011;62853;46.166;3.640;2023-03-12T19:28:42;5.75;;;1.00;;
74102;SDS011;62853;46.166;3.640;2023-03-12T19:31:08;9.82;;;3.00;;
74102;SDS011;62853;46.166;3.640;2023-03-12T19:33:39;7.80;;;2.90;;
74102;SDS011;62853;46.166;3.640;2023-03-12T19:36:05;9.70;;;2.92;;
74102;SDS011;62853;46.166;3.640;2023-03-12T19:38:31;7.53;;;2.85;;
74102;SDS011;62853;46.166;3.640;2023-03-12T19:40:57;8.75;;;2.85;;
74102;SDS011;62853;46.166;3.640;2023-03-12T19:43:23;4.60;;;2.45;;
74102;SDS011;62853;46.166;3.640;2023-03-12T19:45:49;6.00;;;2.55;;
74102;SDS011;62853;46.166;3.640;2023-03-12T19:48:16;6.82;;;2.50;;
74102;SDS011;62853;46.166;3.640;2023-03-12T19:50:45;9.23;;;2.63;;
74102;SDS011;62853;46.166;3.640;2023-03-12T19:53:12;6.95;;;2.88;;
74102;SDS011;62853;46.166;3.640;2023-03-12T19:55:46;4.75;;;2.17;;
74102;SDS011;62853;46.166;3.640;2023-03-12T19:58:13;7.93;;;2.40;;
74102;SDS011;62853;46.166;3.640;2023-03-12T20:00:41;8.57;;;2.72;;
74102;SDS011;62853;46.166;3.640;2023-03-12T20:03:13;6.93;;;2.65;;
74102;SDS011;62853;46.166;3.640;2023-03-12T20:05:44;4.32;;;0.95;;
74102;SDS011;62853;46.166;3.640;2023-03-12T20:08:10;4.28;;;2.25;;
74102;SDS011;62853;46.166;3.640;2023-03-12T20:10:36;6.75;;;2.85;;
74102;SDS011;62853;46.166;3.640;2023-03-12T20:13:03;3.15;;;1.08;;
74102;SDS011;62853;46.166;3.640;2023-03-12T20:15:32;6.60;;;2.80;;
74102;SDS011;62853;46.166;3.640;2023-03-12T20:17:58;2.03;;;0.70;;
74102;SDS011;62853;46.166;3.640;2023-03-12T20:20:24;8.05;;;2.58;;
74102;SDS011;62853;46.166;3.640;2023-03-12T20:22:53;6.10;;;2.33;;
74102;SDS011;62853;46.166;3.640;2023-03-12T20:25:18;7.63;;;2.92;;
74102;SDS011;62853;46.166;3.640;2023-03-12T20:27:44;8.88;;;2.90;;
74102;SDS011;62853;46.166;3.640;2023-03-12T20:30:13;6.85;;;2.75;;
74102;SDS011;62853;46.166;3.640;2023-03-12T20:32:41;6.28;;;2.78;;
74102;SDS011;62853;46.166;3.640;2023-03-12T20:35:09;8.48;;;1.65;;
74102;SDS011;62853;46.166;3.640;2023-03-12T20:37:39;8.98;;;3.67;;
74102;SDS011;62853;46.166;3.640;2023-03-12T20:40:08;5.55;;;2.30;;
74102;SDS011;62853;46.166;3.640;2023-03-12T20:42:34;6.70;;;2.92;;
74102;SDS011;62853;46.166;3.640;2023-03-12T20:45:00;8.65;;;3.65;;
74102;SDS011;62853;46.166;3.640;2023-03-12T20:47:25;6.57;;;3.05;;
74102;SDS011;62853;46.166;3.640;2023-03-12T20:49:51;7.30;;;2.80;;
74102;SDS011;62853;46.166;3.640;2023-03-12T20:52:16;10.05;;;3.20;;
74102;SDS011;62853;46.166;3.640;2023-03-12T20:54:42;6.28;;;3.05;;
74102;SDS011;62853;46.166;3.640;2023-03-12T20:57:07;11.13;;;3.22;;
74102;SDS011;62853;46.166;3.640;2023-03-12T20:59:33;8.45;;;3.10;;
74102;SDS011;62853;46.166;3.640;2023-03-12T21:01:58;4.25;;;1.33;;